Time;durP1;ratioP1;P1;durP2;ratioP2;P2;SDS_P1;SDS_P2;PMS_P1;PMS_P2;Temp;Humidity;BMP_temperature;BMP_pressure;BME280_temperature;BME280_humidity;BME280_pressure;Samples;Min_cycle;Max_cycle;Signal;HPM_P1;HPM_P2
2022/10/14 00:01:13;;;;;;;34.50;23.40;;;12.60;99.90;;;;;;5031871;28;20095;-67
2022/10/14 00:03:39;;;;;;;36.40;23.73;;;12.70;99.90;;;;;;5031408;28;20045;-67
2022/10/14 00:06:07;;;;;;;38.50;25.10;;;12.50;99.90;;;;;;5031696;28;20384;-67
2022/10/14 00:08:33;;;;;;;33.08;22.67;;;12.60;99.90;;;;;;5031874;28;20052;-67
2022/10/14 00:11:04;;;;;;;36.42;23.35;;;12.60;99.90;;;;;;5031746;28;20059;-67
2022/10/14 00:13:30;;;;;;;39.63;24.40;;;12.60;99.90;;;;;;5031561;28;20049;-67
2022/10/14 00:15:55;;;;;;;42.17;25.33;;;12.60;99.90;;;;;;5031717;28;20041;-67
2022/10/14 00:18:21;;;;;;;38.38;24.88;;;12.50;99.90;;;;;;5031509;28;20045;-67
2022/10/14 00:20:57;;;;;;;40.72;26.38;;;12.50;99.90;;;;;;5031351;28;20500;-67
2022/10/14 00:23:23;;;;;;;37.88;25.02;;;12.50;99.90;;;;;;5031440;28;20082;-67
2022/10/14 00:25:49;;;;;;;39.67;26.52;;;12.60;99.90;;;;;;5031673;28;20041;-67
2022/10/14 00:28:14;;;;;;;37.47;25.38;;;12.60;99.90;;;;;;5031597;28;20040;-67
2022/10/14 00:30:40;;;;;;;35.97;26.00;;;12.50;99.90;;;;;;5031458;28;20229;-67
2022/10/14 00:33:06;;;;;;;41.78;26.77;;;12.40;99.90;;;;;;5031029;28;20171;-66
2022/10/14 00:35:31;;;;;;;39.97;26.45;;;12.30;99.90;;;;;;5031621;28;20079;-67
2022/10/14 00:37:58;;;;;;;35.70;23.40;;;12.40;99.90;;;;;;5031485;28;20029;-67
2022/10/14 00:40:24;;;;;;;33.50;22.65;;;12.40;99.90;;;;;;5033690;28;20038;-66
2022/10/14 00:42:50;;;;;;;32.78;23.45;;;12.40;99.90;;;;;;5035216;28;20042;-67
2022/10/14 00:45:21;;;;;;;31.27;22.30;;;12.30;99.90;;;;;;5035317;28;20033;-67
2022/10/14 00:47:49;;;;;;;40.63;25.48;;;12.40;99.90;;;;;;5035124;28;20491;-67
2022/10/14 00:50:16;;;;;;;42.92;25.15;;;12.20;99.90;;;;;;5035204;28;20049;-67
2022/10/14 00:52:42;;;;;;;34.95;24.65;;;12.30;99.90;;;;;;5033635;28;20124;-67
2022/10/14 00:55:13;;;;;;;33.40;22.60;;;12.30;99.90;;;;;;5035019;28;20124;-67
2022/10/14 00:57:39;;;;;;;37.78;24.90;;;12.20;99.90;;;;;;5035148;28;20041;-67
2022/10/14 01:00:11;;;;;;;39.70;25.27;;;12.20;99.90;;;;;;5034901;28;20465;-67
2022/10/14 01:02:38;;;;;;;47.08;25.45;;;12.30;99.90;;;;;;5034552;28;20096;-67
2022/10/14 01:05:05;;;;;;;48.80;25.50;;;12.30;99.90;;;;;;5035097;28;20051;-67
2022/10/14 01:07:39;;;;;;;35.88;22.80;;;12.10;99.90;;;;;;5034971;28;20055;-67
2022/10/14 01:10:10;;;;;;;32.13;22.67;;;12.10;99.90;;;;;;5034861;28;20041;-67
2022/10/14 01:13:13;;;;;;;33.50;23.60;;;12.20;99.90;;;;;;5034538;28;20060;-67
2022/10/14 01:16:08;;;;;;;34.60;22.58;;;12.20;99.90;;;;;;5034723;28;20538;-67
2022/10/14 01:19:06;;;;;;;35.70;24.38;;;12.00;99.90;;;;;;5034540;28;20049;-67
2022/10/14 01:21:41;;;;;;;31.08;21.17;;;12.10;99.90;;;;;;5034815;28;20116;-67
2022/10/14 01:24:49;;;;;;;38.20;24.92;;;12.20;99.90;;;;;;5034424;28;20483;-67
2022/10/14 01:27:22;;;;;;;29.30;20.73;;;12.10;99.90;;;;;;5021049;28;20041;-67
2022/10/14 01:30:19;;;;;;;29.70;20.10;;;12.10;99.90;;;;;;5034619;28;20049;-67
2022/10/14 01:32:50;;;;;;;27.30;18.65;;;12.10;99.90;;;;;;5034219;28;20041;-67
2022/10/14 01:35:35;;;;;;;23.52;16.60;;;12.10;99.90;;;;;;5034422;28;20111;-67
2022/10/14 01:38:09;;;;;;;26.92;16.88;;;11.90;99.90;;;;;;5034225;28;20080;-67
2022/10/14 01:40:46;;;;;;;24.38;16.90;;;11.80;99.90;;;;;;5034393;28;20109;-67
2022/10/14 01:43:12;;;;;;;19.52;15.00;;;11.80;99.90;;;;;;5033883;28;20495;-67
2022/10/14 01:45:41;;;;;;;22.58;16.38;;;11.80;99.90;;;;;;5034238;28;20037;-67
2022/10/14 01:48:09;;;;;;;24.55;16.80;;;11.70;99.90;;;;;;5034016;28;20072;-67
2022/10/14 01:50:37;;;;;;;24.02;18.33;;;11.70;99.90;;;;;;5033768;28;20038;-67
2022/10/14 01:53:08;;;;;;;22.65;17.42;;;11.70;99.90;;;;;;5033480;28;20042;-67
2022/10/14 01:55:41;;;;;;;22.25;16.98;;;11.60;99.90;;;;;;5034013;28;20157;-68
2022/10/14 01:58:09;;;;;;;20.88;16.13;;;11.70;99.90;;;;;;5033918;28;20046;-67
2022/10/14 02:00:34;;;;;;;26.48;17.67;;;11.80;99.90;;;;;;5033829;28;20534;-67
2022/10/14 02:03:00;;;;;;;20.77;15.55;;;11.60;99.90;;;;;;5033497;28;20037;-66
2022/10/14 02:05:40;;;;;;;19.60;14.73;;;11.70;99.90;;;;;;5034035;28;20038;-67
2022/10/14 02:08:19;;;;;;;20.35;14.98;;;11.70;99.90;;;;;;5032762;28;20072;-66
2022/10/14 02:10:50;;;;;;;22.50;15.57;;;11.60;99.90;;;;;;5033778;28;20073;-67
2022/10/14 02:13:28;;;;;;;20.38;14.80;;;11.70;99.90;;;;;;5033319;28;20116;-67
2022/10/14 02:16:23;;;;;;;18.25;14.05;;;11.60;99.90;;;;;;5033824;28;20060;-67
2022/10/14 02:19:01;;;;;;;20.33;13.23;;;11.50;99.90;;;;;;5033430;28;20037;-67
2022/10/14 02:21:37;;;;;;;25.40;14.05;;;11.60;99.90;;;;;;5033548;28;20037;-66
2022/10/14 02:24:20;;;;;;;17.30;13.50;;;11.60;99.90;;;;;;5033397;28;20041;-67
2022/10/14 02:26:48;;;;;;;18.63;14.80;;;11.60;99.90;;;;;;5033471;28;20079;-67
2022/10/14 02:29:16;;;;;;;15.98;12.50;;;11.60;99.90;;;;;;5033372;28;20049;-67
2022/10/14 02:31:43;;;;;;;18.88;12.50;;;11.40;99.90;;;;;;5033205;28;20503;-67
2022/10/14 02:34:12;;;;;;;15.35;11.77;;;11.50;99.90;;;;;;5031644;28;20045;-67
2022/10/14 02:36:40;;;;;;;15.40;12.57;;;11.50;99.90;;;;;;5033435;28;20048;-67
2022/10/14 02:39:10;;;;;;;17.45;12.85;;;11.50;99.90;;;;;;5033174;28;20045;-67
2022/10/14 02:41:36;;;;;;;17.48;12.98;;;11.50;99.90;;;;;;5033214;28;20033;-67
2022/10/14 02:44:04;;;;;;;17.98;13.02;;;11.60;99.90;;;;;;5032793;28;20090;-67
2022/10/14 02:46:31;;;;;;;26.95;12.63;;;11.60;99.90;;;;;;5032900;28;20037;-67
2022/10/14 02:48:57;;;;;;;15.23;11.25;;;11.50;99.90;;;;;;5033117;28;20052;-67
2022/10/14 02:51:22;;;;;;;13.20;10.77;;;11.50;99.90;;;;;;5033092;28;20037;-67
2022/10/14 02:53:48;;;;;;;26.73;12.02;;;11.40;99.90;;;;;;5015110;28;20042;-67
2022/10/14 02:56:14;;;;;;;14.50;11.52;;;11.50;99.90;;;;;;5032773;28;20047;-67
2022/10/14 02:58:40;;;;;;;17.02;11.27;;;11.50;99.90;;;;;;5032597;28;20450;-67
2022/10/14 03:01:05;;;;;;;14.95;11.73;;;11.40;99.90;;;;;;5031142;28;20095;-67
2022/10/14 03:03:31;;;;;;;14.25;11.35;;;11.40;99.90;;;;;;5032553;28;20113;-67
2022/10/14 03:05:56;;;;;;;15.15;10.48;;;11.40;99.90;;;;;;5032836;28;20029;-67
2022/10/14 03:08:22;;;;;;;14.70;10.63;;;11.40;99.90;;;;;;5032712;28;20045;-67
2022/10/14 03:10:47;;;;;;;14.10;10.80;;;11.40;99.90;;;;;;5032599;28;20502;-66
2022/10/14 03:13:14;;;;;;;18.15;11.70;;;11.40;99.90;;;;;;5032317;28;20041;-67
2022/10/14 03:15:39;;;;;;;15.32;11.15;;;11.50;99.90;;;;;;5032440;28;20148;-68
2022/10/14 03:18:05;;;;;;;14.27;10.95;;;11.40;99.90;;;;;;5031133;28;20506;-67
2022/10/14 03:20:31;;;;;;;14.95;10.65;;;11.50;99.90;;;;;;5069399;22;20041;-72
2022/10/14 03:22:56;;;;;;;13.23;10.60;;;11.50;99.90;;;;;;5071921;28;20045;-72
2022/10/14 03:25:23;;;;;;;13.35;10.60;;;11.30;99.90;;;;;;5072272;28;20040;-72
2022/10/14 03:27:49;;;;;;;12.50;9.63;;;11.30;99.90;;;;;;5070921;28;20490;-72
2022/10/14 03:30:15;;;;;;;13.07;10.02;;;11.40;99.90;;;;;;5071611;28;20045;-72
2022/10/14 03:32:40;;;;;;;11.32;9.65;;;11.40;99.90;;;;;;5070625;28;20063;-73
2022/10/14 03:35:06;;;;;;;11.80;9.82;;;11.40;99.90;;;;;;5070837;28;20486;-72
2022/10/14 03:37:32;;;;;;;14.18;9.48;;;11.20;99.90;;;;;;5070755;28;20048;-73
2022/10/14 03:39:57;;;;;;;10.35;8.40;;;11.30;99.90;;;;;;5070479;28;20048;-72
2022/10/14 03:42:23;;;;;;;12.23;9.95;;;11.30;99.90;;;;;;5070460;28;20043;-73
2022/10/14 03:44:49;;;;;;;11.98;9.48;;;11.20;99.90;;;;;;5070787;28;20115;-72
2022/10/14 03:47:14;;;;;;;10.98;8.75;;;11.20;99.90;;;;;;5072152;28;20115;-72
2022/10/14 03:49:40;;;;;;;10.20;8.57;;;11.10;99.90;;;;;;5072100;28;20063;-73
2022/10/14 03:52:05;;;;;;;9.52;8.23;;;11.20;99.90;;;;;;5071967;28;20072;-72
2022/10/14 03:54:31;;;;;;;9.55;8.20;;;11.30;99.90;;;;;;5070569;28;20083;-72
2022/10/14 03:56:56;;;;;;;10.63;8.43;;;11.20;99.90;;;;;;5071958;28;20048;-72
2022/10/14 03:59:22;;;;;;;10.50;8.70;;;11.20;99.90;;;;;;5071663;28;20040;-73
2022/10/14 04:01:47;;;;;;;10.20;7.80;;;11.20;99.90;;;;;;5071649;28;20033;-72
2022/10/14 04:04:13;;;;;;;11.73;9.27;;;11.30;99.90;;;;;;5071425;28;20036;-72
2022/10/14 04:06:39;;;;;;;12.07;8.85;;;11.30;99.90;;;;;;5071869;28;20075;-72
2022/10/14 04:09:04;;;;;;;51.58;12.95;;;11.20;99.90;;;;;;5071852;28;20048;-72
2022/10/14 04:11:30;;;;;;;13.52;10.07;;;11.10;99.90;;;;;;5071634;28;20115;-72
2022/10/14 04:13:59;;;;;;;14.65;11.40;;;11.30;99.90;;;;;;5069421;28;20039;-72
2022/10/14 04:16:26;;;;;;;12.20;9.98;;;11.20;99.90;;;;;;5071869;28;20086;-72
2022/10/14 04:18:52;;;;;;;13.40;10.43;;;11.30;99.90;;;;;;5070439;28;20119;-72
2022/10/14 04:21:18;;;;;;;12.85;10.50;;;11.20;99.90;;;;;;5070108;28;20036;-72
2022/10/14 04:23:44;;;;;;;16.45;11.73;;;11.30;99.90;;;;;;5071362;28;20405;-72
2022/10/14 04:26:10;;;;;;;15.63;11.20;;;11.30;99.90;;;;;;5070486;28;20107;-72
2022/10/14 04:28:36;;;;;;;23.17;13.35;;;11.20;99.90;;;;;;5070004;28;20040;-72
2022/10/14 04:31:02;;;;;;;25.63;13.27;;;11.30;99.90;;;;;;5071531;28;20040;-72
2022/10/14 04:33:28;;;;;;;17.33;12.35;;;11.40;99.90;;;;;;5071296;28;20046;-72
2022/10/14 04:36:02;;;;;;;18.05;11.77;;;11.20;99.90;;;;;;5053439;28;20049;-72
2022/10/14 04:38:28;;;;;;;20.48;12.45;;;11.30;99.90;;;;;;5070306;28;20051;-73
2022/10/14 04:40:55;;;;;;;18.95;12.15;;;11.30;99.90;;;;;;5071335;28;20045;-72
2022/10/14 04:43:21;;;;;;;19.80;12.13;;;11.30;99.90;;;;;;5070892;28;20506;-72
2022/10/14 04:45:47;;;;;;;24.48;12.63;;;11.30;99.90;;;;;;5071515;28;20115;-73
2022/10/14 04:48:13;;;;;;;21.45;11.50;;;11.30;99.90;;;;;;5071437;28;20387;-72
2022/10/14 04:50:39;;;;;;;24.55;12.85;;;11.20;99.90;;;;;;5071333;28;20100;-72
2022/10/14 04:53:04;;;;;;;20.33;11.57;;;11.10;99.90;;;;;;5071031;28;20037;-72
2022/10/14 04:55:30;;;;;;;20.48;12.43;;;11.10;99.90;;;;;;5070229;28;20053;-73
2022/10/14 04:57:55;;;;;;;20.88;11.65;;;11.20;99.90;;;;;;5071079;28;20093;-72
2022/10/14 05:00:21;;;;;;;26.00;11.13;;;11.20;99.90;;;;;;5069738;28;20084;-72
2022/10/14 05:02:46;;;;;;;18.15;9.98;;;11.20;99.90;;;;;;5071050;28;20040;-72
2022/10/14 05:05:13;;;;;;;16.55;9.95;;;11.20;99.90;;;;;;5071309;28;20536;-72
2022/10/14 05:07:40;;;;;;;18.88;10.85;;;11.20;99.90;;;;;;5069907;28;20030;-72
2022/10/14 05:10:08;;;;;;;18.17;9.60;;;11.10;99.90;;;;;;5070964;28;20045;-72
2022/10/14 05:12:34;;;;;;;21.58;11.05;;;11.10;99.90;;;;;;5070702;28;20190;-73
2022/10/14 05:15:00;;;;;;;25.73;12.73;;;11.20;99.90;;;;;;5071200;28;20032;-73
2022/10/14 05:17:25;;;;;;;26.70;11.40;;;11.10;99.90;;;;;;5070100;28;20527;-72
2022/10/14 05:19:51;;;;;;;25.65;12.30;;;11.10;99.90;;;;;;5070740;28;20044;-73
2022/10/14 05:22:16;;;;;;;22.45;11.80;;;11.30;99.90;;;;;;5069870;28;20040;-73
2022/10/14 05:24:42;;;;;;;22.90;12.07;;;11.20;99.90;;;;;;5069712;28;20036;-72
2022/10/14 05:27:08;;;;;;;70.10;16.23;;;11.10;99.90;;;;;;5072585;28;20098;-73
2022/10/14 05:29:33;;;;;;;26.60;13.20;;;11.30;99.90;;;;;;5073231;28;20048;-72
2022/10/14 05:31:59;;;;;;;38.65;12.68;;;11.20;99.90;;;;;;5073315;28;20052;-72
2022/10/14 05:34:24;;;;;;;42.10;15.38;;;11.10;99.90;;;;;;5072834;28;20067;-72
2022/10/14 05:36:50;;;;;;;21.85;11.48;;;11.10;99.90;;;;;;5073342;28;20052;-72
2022/10/14 05:39:15;;;;;;;26.05;12.23;;;11.20;99.90;;;;;;5056289;28;20052;-73
2022/10/14 05:41:41;;;;;;;28.70;13.30;;;11.10;99.90;;;;;;5072770;28;20457;-72
2022/10/14 05:44:11;;;;;;;24.63;12.07;;;11.20;99.90;;;;;;5072609;28;20136;-72
2022/10/14 05:46:36;;;;;;;30.02;13.68;;;11.00;99.90;;;;;;5074304;28;20068;-72
2022/10/14 05:49:04;;;;;;;35.88;13.43;;;11.00;99.90;;;;;;5056295;28;20078;-72
2022/10/14 05:51:33;;;;;;;28.30;13.20;;;11.20;99.90;;;;;;5072994;28;20071;-72
2022/10/14 05:53:59;;;;;;;61.45;16.65;;;11.10;99.90;;;;;;5072730;28;20508;-72
2022/10/14 05:56:25;;;;;;;35.80;17.40;;;11.20;99.90;;;;;;5056181;28;20079;-72
2022/10/14 05:58:50;;;;;;;40.25;16.67;;;11.10;99.90;;;;;;5072449;28;20132;-72
2022/10/14 06:01:16;;;;;;;41.70;17.77;;;11.20;99.90;;;;;;5073840;28;20036;-72
2022/10/14 06:03:41;;;;;;;42.53;16.25;;;11.10;99.90;;;;;;5072241;28;20044;-72
2022/10/14 06:06:12;;;;;;;43.35;17.90;;;11.10;99.90;;;;;;5072368;28;20051;-72
2022/10/14 06:08:38;;;;;;;72.82;21.95;;;11.10;99.90;;;;;;5055626;28;20051;-72
2022/10/14 06:11:04;;;;;;;53.70;19.65;;;11.20;99.90;;;;;;5072130;28;20401;-72
2022/10/14 06:13:30;;;;;;;58.63;19.33;;;11.20;99.90;;;;;;5071941;28;20148;-72
2022/10/14 06:15:56;;;;;;;59.65;19.65;;;11.10;99.90;;;;;;5072286;28;20131;-72
2022/10/14 06:18:21;;;;;;;51.20;21.35;;;11.10;99.90;;;;;;5072167;28;20094;-72
2022/10/14 06:20:53;;;;;;;47.97;18.50;;;11.10;99.90;;;;;;5072046;28;20044;-72
2022/10/14 06:23:20;;;;;;;50.00;19.10;;;11.20;99.90;;;;;;5071776;28;20056;-72
2022/10/14 06:25:45;;;;;;;92.18;23.75;;;11.10;99.90;;;;;;5073512;28;20039;-72
2022/10/14 06:28:11;;;;;;;100.68;24.23;;;11.10;99.90;;;;;;5073380;28;20557;-72
2022/10/14 06:30:36;;;;;;;50.88;20.27;;;11.20;99.90;;;;;;5071862;28;20554;-72
2022/10/14 06:33:02;;;;;;;48.75;20.33;;;11.30;99.90;;;;;;5071698;28;20037;-72
2022/10/14 06:35:27;;;;;;;61.63;21.63;;;11.30;99.90;;;;;;5055193;28;20406;-72
2022/10/14 06:37:53;;;;;;;60.03;22.45;;;11.30;99.90;;;;;;5072533;28;20043;-72
2022/10/14 06:40:19;;;;;;;87.20;26.45;;;11.30;99.90;;;;;;5071653;28;20036;-72
2022/10/14 06:42:45;;;;;;;56.58;22.77;;;11.20;99.90;;;;;;5072875;28;20044;-72
2022/10/14 06:45:10;;;;;;;68.88;25.15;;;11.30;99.90;;;;;;5073045;28;20044;-72
2022/10/14 06:47:36;;;;;;;79.97;27.05;;;11.30;99.90;;;;;;5072960;28;20093;-72
2022/10/14 06:50:01;;;;;;;85.45;28.45;;;11.20;99.90;;;;;;5072761;28;20093;-72
2022/10/14 06:52:27;;;;;;;77.07;26.17;;;11.50;99.90;;;;;;5072353;28;20654;-72
2022/10/14 06:54:52;;;;;;;77.50;27.80;;;11.30;99.90;;;;;;5071417;28;20037;-72
2022/10/14 06:57:18;;;;;;;100.18;29.95;;;11.30;99.90;;;;;;5071654;28;20378;-73
2022/10/14 06:59:44;;;;;;;73.50;25.55;;;11.40;99.90;;;;;;5072585;28;20040;-72
2022/10/14 07:02:11;;;;;;;59.47;22.95;;;11.30;99.90;;;;;;5065550;28;20045;-72
2022/10/14 07:04:38;;;;;;;64.18;23.70;;;11.40;99.90;;;;;;5072229;28;20486;-73
2022/10/14 07:07:05;;;;;;;66.32;24.30;;;11.40;99.90;;;;;;5071147;28;20040;-72
2022/10/14 07:09:31;;;;;;;57.75;23.98;;;11.30;99.90;;;;;;5054420;28;20525;-72
2022/10/14 07:11:57;;;;;;;54.33;21.88;;;11.40;99.90;;;;;;5071324;28;20048;-72
2022/10/14 07:14:22;;;;;;;65.50;24.08;;;11.40;99.90;;;;;;5071145;28;20044;-73
2022/10/14 07:16:48;;;;;;;56.80;23.05;;;11.40;99.90;;;;;;5072565;28;20094;-73
2022/10/14 07:19:13;;;;;;;50.97;22.10;;;11.50;99.90;;;;;;5071149;28;20071;-72
2022/10/14 07:21:40;;;;;;;63.40;24.90;;;11.40;99.90;;;;;;5071110;28;20135;-72
2022/10/14 07:24:08;;;;;;;61.38;25.45;;;11.50;99.90;;;;;;5070861;28;20044;-72
2022/10/14 07:26:34;;;;;;;65.70;25.70;;;11.60;99.90;;;;;;5070967;28;20498;-72
2022/10/14 07:28:59;;;;;;;53.33;21.15;;;11.50;99.90;;;;;;5072225;28;20047;-72
2022/10/14 07:31:25;;;;;;;50.90;22.48;;;11.50;99.90;;;;;;5071948;28;20098;-72
2022/10/14 07:33:51;;;;;;;60.55;23.23;;;11.60;99.90;;;;;;5071755;28;20063;-72
2022/10/14 07:36:18;;;;;;;79.78;26.75;;;11.70;99.90;;;;;;5070702;28;20470;-72
2022/10/14 07:38:43;;;;;;;62.10;24.40;;;11.70;99.90;;;;;;5071911;28;20501;-72
2022/10/14 07:41:15;;;;;;;57.83;23.83;;;11.70;99.90;;;;;;5070664;28;20071;-72
2022/10/14 07:43:54;;;;;;;65.88;25.50;;;11.70;99.90;;;;;;5053766;28;20044;-72
2022/10/14 07:46:28;;;;;;;65.60;27.73;;;11.80;99.90;;;;;;5071985;28;20043;-72
2022/10/14 07:48:58;;;;;;;55.75;26.35;;;11.70;99.90;;;;;;5070188;28;20506;-72
2022/10/14 07:51:26;;;;;;;55.25;25.00;;;11.70;99.90;;;;;;5071960;28;20393;-72
2022/10/14 07:53:52;;;;;;;67.75;28.60;;;11.70;99.90;;;;;;5070368;28;20106;-72
2022/10/14 07:56:18;;;;;;;58.65;27.10;;;11.70;99.90;;;;;;5070478;28;20498;-72
2022/10/14 07:58:45;;;;;;;57.72;27.45;;;11.70;99.90;;;;;;5071602;28;20040;-72
2022/10/14 08:01:11;;;;;;;60.20;27.70;;;11.80;99.90;;;;;;5070376;28;20047;-72
2022/10/14 08:03:36;;;;;;;52.83;26.20;;;11.70;99.90;;;;;;5069933;28;20040;-72
2022/10/14 08:06:04;;;;;;;56.42;26.40;;;11.80;99.90;;;;;;5070446;28;20119;-73
2022/10/14 08:08:30;;;;;;;60.15;27.35;;;11.80;99.90;;;;;;5070244;28;20041;-73
2022/10/14 08:11:00;;;;;;;48.60;22.95;;;11.80;99.90;;;;;;5071680;28;20390;-72
2022/10/14 08:13:26;;;;;;;53.63;25.30;;;11.70;99.90;;;;;;5053267;28;20051;-73
2022/10/14 08:15:51;;;;;;;54.53;26.35;;;11.90;99.90;;;;;;5070287;28;20041;-71
2022/10/14 08:18:17;;;;;;;51.83;25.30;;;11.80;99.90;;;;;;5070295;28;20056;-72
2022/10/14 08:20:42;;;;;;;50.13;25.58;;;11.80;99.90;;;;;;5070074;28;20059;-72
2022/10/14 08:23:08;;;;;;;51.80;24.88;;;11.90;99.90;;;;;;5071326;28;20412;-72
2022/10/14 08:25:35;;;;;;;47.22;24.05;;;11.90;99.90;;;;;;5070225;28;20041;-72
2022/10/14 08:28:01;;;;;;;46.35;23.77;;;12.00;99.90;;;;;;5070215;28;20558;-72
2022/10/14 08:30:26;;;;;;;54.03;25.90;;;11.90;99.90;;;;;;5071294;28;20132;-70
2022/10/14 08:32:52;;;;;;;51.13;26.33;;;12.10;99.90;;;;;;5071044;28;20033;-73
2022/10/14 08:35:17;;;;;;;50.50;24.48;;;12.10;99.90;;;;;;5071320;28;20517;-72
2022/10/14 08:37:43;;;;;;;44.80;23.30;;;12.00;99.90;;;;;;5071434;28;20127;-72
2022/10/14 08:40:14;;;;;;;52.38;26.35;;;12.00;99.90;;;;;;5071262;28;20490;-72
2022/10/14 08:42:54;;;;;;;48.58;23.58;;;12.10;99.90;;;;;;5069834;28;20072;-72
2022/10/14 08:45:44;;;;;;;48.17;23.92;;;12.20;99.90;;;;;;5071528;28;20044;-72
2022/10/14 08:48:16;;;;;;;45.72;23.48;;;12.20;99.90;;;;;;5071161;28;20072;-72
2022/10/14 08:50:54;;;;;;;45.05;23.50;;;12.20;99.90;;;;;;5071233;28;20463;-72
2022/10/14 08:53:27;;;;;;;47.78;25.17;;;12.20;99.90;;;;;;5070855;28;20036;-72
2022/10/14 08:55:56;;;;;;;41.95;22.67;;;12.20;99.90;;;;;;5069906;28;20037;-72
2022/10/14 08:58:27;;;;;;;44.42;23.13;;;12.20;99.90;;;;;;5070166;28;20040;-72
2022/10/14 09:00:54;;;;;;;46.10;22.65;;;12.30;99.90;;;;;;5072603;28;20036;-72
2022/10/14 09:03:25;;;;;;;38.88;22.00;;;12.40;99.90;;;;;;5074609;28;20055;-72
2022/10/14 09:06:00;;;;;;;42.78;22.75;;;12.40;99.90;;;;;;5056664;28;20036;-72
2022/10/14 09:08:32;;;;;;;41.10;21.20;;;12.40;99.90;;;;;;5074945;28;20115;-72
2022/10/14 09:10:58;;;;;;;36.90;20.10;;;12.40;99.90;;;;;;5074821;28;20425;-72
2022/10/14 09:13:31;;;;;;;40.88;21.75;;;12.40;99.90;;;;;;5074436;28;20086;-72
2022/10/14 09:16:30;;;;;;;41.30;23.00;;;12.50;99.90;;;;;;5074670;28;20032;-72
2022/10/14 09:18:59;;;;;;;46.00;23.50;;;12.50;99.90;;;;;;5070669;28;20053;-73
2022/10/14 09:21:33;;;;;;;44.10;22.85;;;12.60;99.90;;;;;;5087692;22;20122;-67
2022/10/14 09:24:19;;;;;;;43.30;23.65;;;12.50;99.90;;;;;;5073778;28;20036;-67
2022/10/14 09:26:47;;;;;;;44.90;24.98;;;12.70;99.90;;;;;;5074440;28;20043;-68
2022/10/14 09:29:26;;;;;;;46.13;23.83;;;12.60;99.90;;;;;;5074346;28;20094;-67
2022/10/14 09:31:54;;;;;;;47.38;24.67;;;12.60;99.90;;;;;;5074171;28;20074;-67
2022/10/14 09:34:27;;;;;;;48.42;24.15;;;12.80;99.90;;;;;;5074165;28;20072;-67
2022/10/14 09:36:52;;;;;;;56.35;26.55;;;12.90;99.90;;;;;;5074346;28;20507;-67
2022/10/14 09:39:18;;;;;;;42.40;23.52;;;12.80;99.90;;;;;;5074524;28;20053;-68
2022/10/14 09:41:48;;;;;;;42.55;22.70;;;12.90;99.90;;;;;;5074222;28;20520;-67
2022/10/14 09:44:24;;;;;;;45.55;23.15;;;13.00;99.90;;;;;;5074058;28;20036;-67
2022/10/14 09:46:58;;;;;;;46.83;23.60;;;13.00;99.90;;;;;;5074301;28;20493;-67
2022/10/14 09:49:44;;;;;;;49.00;24.30;;;13.10;99.90;;;;;;5074102;28;20040;-67
2022/10/14 09:52:23;;;;;;;41.60;22.15;;;13.00;99.90;;;;;;5074165;28;20378;-68
2022/10/14 09:54:54;;;;;;;43.58;23.52;;;13.00;99.90;;;;;;5074208;28;20076;-68
2022/10/14 09:57:20;;;;;;;41.28;22.85;;;13.20;99.90;;;;;;5074046;28;20079;-68
2022/10/14 09:59:57;;;;;;;42.95;23.30;;;13.00;99.90;;;;;;5073550;28;20076;-67
2022/10/14 10:02:33;;;;;;;46.95;23.95;;;13.20;99.90;;;;;;5073704;28;20494;-68
2022/10/14 10:05:11;;;;;;;43.22;23.67;;;13.00;99.90;;;;;;5073996;28;20059;-68
2022/10/14 10:07:37;;;;;;;42.80;22.25;;;13.20;99.90;;;;;;5073888;28;20048;-68
2022/10/14 10:10:16;;;;;;;41.28;22.67;;;13.10;99.90;;;;;;5073745;28;20044;-68
2022/10/14 10:12:45;;;;;;;44.28;22.63;;;13.10;99.90;;;;;;5072803;28;20036;-68
2022/10/14 10:15:17;;;;;;;45.42;23.85;;;13.00;99.90;;;;;;5072498;28;20071;-68
2022/10/14 10:17:44;;;;;;;49.90;24.33;;;13.20;99.90;;;;;;5073769;28;20048;-67
2022/10/14 10:20:19;;;;;;;39.72;22.88;;;13.00;99.90;;;;;;5073315;28;20045;-67
2022/10/14 10:22:45;;;;;;;46.33;23.60;;;13.10;99.90;;;;;;5073189;28;20120;-67
2022/10/14 10:25:11;;;;;;;50.85;25.20;;;13.20;99.90;;;;;;5073630;28;20119;-67
2022/10/14 10:27:41;;;;;;;50.78;25.60;;;13.10;99.90;;;;;;5073606;28;20108;-67
2022/10/14 10:30:16;;;;;;;49.78;24.70;;;13.10;99.90;;;;;;5073336;28;20075;-68
2022/10/14 10:33:03;;;;;;;51.22;26.65;;;13.20;99.90;;;;;;5073036;28;20528;-68
2022/10/14 10:35:54;;;;;;;59.83;27.10;;;13.20;99.90;;;;;;5072957;28;20037;-67
2022/10/14 10:38:29;;;;;;;59.47;26.98;;;13.10;99.90;;;;;;5072216;28;20044;-67
2022/10/14 10:41:17;;;;;;;64.32;26.13;;;13.30;99.90;;;;;;5072957;28;20041;-67
2022/10/14 10:43:58;;;;;;;48.67;25.52;;;13.20;99.90;;;;;;5072710;28;20063;-69
2022/10/14 10:46:59;;;;;;;49.80;24.75;;;13.20;99.90;;;;;;5072391;28;20055;-67
2022/10/14 10:50:07;;;;;;;53.92;23.65;;;13.20;99.90;;;;;;5072540;28;20040;-67
2022/10/14 10:52:47;;;;;;;55.20;24.95;;;13.30;99.90;;;;;;5072506;28;20411;-67
2022/10/14 10:55:34;;;;;;;55.17;23.15;;;13.10;99.90;;;;;;5072982;28;20044;-68
2022/10/14 10:58:34;;;;;;;54.70;23.98;;;13.20;99.90;;;;;;5072556;28;20056;-67
2022/10/14 11:01:24;;;;;;;49.78;22.00;;;13.10;99.90;;;;;;5072495;28;20584;-67
2022/10/14 11:04:20;;;;;;;52.28;21.17;;;13.30;99.90;;;;;;5057964;28;20399;-67
2022/10/14 11:13:46;;;;;;;45.15;20.65;;;13.20;99.90;;;;;;5072374;28;20114;-68
2022/10/14 11:16:20;;;;;;;52.65;22.60;;;13.20;99.90;;;;;;5072550;28;20148;-67
2022/10/14 11:19:00;;;;;;;55.92;22.35;;;13.10;99.90;;;;;;5072245;28;20123;-67
2022/10/14 11:21:33;;;;;;;48.83;21.80;;;13.20;99.90;;;;;;5072366;28;20044;-68
2022/10/14 11:24:17;;;;;;;;;;;13.20;99.90;;;;;;5072572;28;20045;-67
2022/10/14 11:27:07;;;;;;;52.30;22.27;;;13.30;99.90;;;;;;5072339;28;19916;-67
2022/10/14 11:29:57;;;;;;;52.70;23.05;;;13.30;99.90;;;;;;5072051;28;20517;-68
2022/10/14 11:32:40;;;;;;;53.88;26.02;;;13.30;99.90;;;;;;5071741;28;20119;-67
2022/10/14 11:35:17;;;;;;;54.63;24.98;;;13.30;99.90;;;;;;5071682;28;20115;-68
2022/10/14 11:38:03;;;;;;;56.50;24.20;;;13.30;99.90;;;;;;5071848;28;20059;-68
2022/10/14 11:40:54;;;;;;;65.72;24.85;;;13.20;99.90;;;;;;5072162;28;20040;-68
2022/10/14 11:43:50;;;;;;;59.35;25.15;;;13.30;99.90;;;;;;5071954;28;20040;-68
2022/10/14 11:46:23;;;;;;;55.50;24.67;;;13.40;99.90;;;;;;5070959;28;20052;-68
2022/10/14 11:48:50;;;;;;;58.55;25.05;;;13.30;99.90;;;;;;5071829;28;20525;-68
2022/10/14 11:51:25;;;;;;;64.40;25.95;;;13.30;99.90;;;;;;5071933;28;20084;-68
2022/10/14 11:54:02;;;;;;;57.95;24.95;;;13.30;99.90;;;;;;5071642;28;20045;-68
2022/10/14 11:56:32;;;;;;;56.22;24.27;;;13.40;99.90;;;;;;5071820;28;20546;-68
2022/10/14 11:59:02;;;;;;;46.80;23.73;;;13.30;99.90;;;;;;5071747;28;20482;-68
2022/10/14 12:01:30;;;;;;;49.38;22.25;;;13.40;99.90;;;;;;5070317;28;20075;-68
2022/10/14 12:04:11;;;;;;;40.85;20.45;;;13.40;99.90;;;;;;5071375;28;20643;-68
2022/10/14 12:06:42;;;;;;;55.30;24.80;;;13.40;99.90;;;;;;5071811;28;20094;-67
2022/10/14 12:09:20;;;;;;;51.05;23.33;;;13.20;99.90;;;;;;5071592;28;20119;-67
2022/10/14 12:11:51;;;;;;;50.03;23.73;;;13.30;99.90;;;;;;5071800;28;20044;-67
2022/10/14 12:14:23;;;;;;;54.30;23.05;;;13.20;99.90;;;;;;5071349;28;20123;-67
2022/10/14 12:16:49;;;;;;;51.90;24.08;;;13.40;99.90;;;;;;5071553;28;20041;-67
2022/10/14 12:19:22;;;;;;;50.28;23.75;;;13.30;99.90;;;;;;5071342;28;20223;-67
2022/10/14 12:22:09;;;;;;;52.83;24.55;;;13.40;99.90;;;;;;5070962;28;20034;-67
2022/10/14 12:24:39;;;;;;;51.38;22.73;;;13.30;99.90;;;;;;5071122;28;20433;-67
2022/10/14 12:27:10;;;;;;;48.50;23.02;;;13.40;99.90;;;;;;5071580;28;20044;-68
2022/10/14 12:29:44;;;;;;;61.78;26.73;;;13.50;99.90;;;;;;5071601;28;20149;-68
2022/10/14 12:32:19;;;;;;;56.80;24.85;;;13.40;99.90;;;;;;5071217;28;20497;-68
2022/10/14 12:34:46;;;;;;;65.40;27.20;;;13.40;99.90;;;;;;5071519;28;20123;-68
2022/10/14 12:37:30;;;;;;;53.10;25.88;;;13.30;99.90;;;;;;5073959;28;20499;-68
2022/10/14 12:40:02;;;;;;;61.42;26.27;;;13.30;99.90;;;;;;5075344;28;20059;-68
2022/10/14 12:42:59;;;;;;;65.28;29.13;;;13.50;99.90;;;;;;5074923;28;20044;-68
2022/10/14 12:45:27;;;;;;;67.57;28.00;;;13.30;99.90;;;;;;5067122;28;20106;-68
2022/10/14 12:48:14;;;;;;;58.85;26.90;;;13.30;99.90;;;;;;5075393;28;20032;-68
2022/10/14 12:50:42;;;;;;;63.63;28.50;;;13.40;99.90;;;;;;5075118;28;20045;-68
2022/10/14 12:53:22;;;;;;;68.47;29.83;;;13.40;99.90;;;;;;5075016;28;20040;-68